sensor_id;sensor_type;location;lat;lon;timestamp;pressure;altitude;pressure_sealevel;temperature;humidity
61573;BME280;47465;43.094;12.434;2022-11-15T00:01:29;99202.13;;;7.88;100.00
61573;BME280;47465;43.094;12.434;2022-11-15T00:04:00;99208.34;;;7.85;100.00
61573;BME280;47465;43.094;12.434;2022-11-15T00:06:26;99205.69;;;7.84;100.00
61573;BME280;47465;43.094;12.434;2022-11-15T00:08:52;99219.66;;;7.99;100.00
61573;BME280;47465;43.094;12.434;2022-11-15T00:11:19;99200.31;;;7.91;100.00
61573;BME280;47465;43.094;12.434;2022-11-15T00:13:45;99233.75;;;8.05;100.00
61573;BME280;47465;43.094;12.434;2022-11-15T00:16:11;99198.56;;;7.89;100.00
61573;BME280;47465;43.094;12.434;2022-11-15T00:18:37;99202.13;;;7.86;100.00
61573;BME280;47465;43.094;12.434;2022-11-15T00:21:06;99190.69;;;7.84;100.00
61573;BME280;47465;43.094;12.434;2022-11-15T00:23:32;99230.19;;;8.07;100.00
61573;BME280;47465;43.094;12.434;2022-11-15T00:25:59;99218.78;;;7.97;100.00
61573;BME280;47465;43.094;12.434;2022-11-15T00:28:25;99191.53;;;7.86;100.00
61573;BME280;47465;43.094;12.434;2022-11-15T00:30:51;99201.28;;;7.84;100.00
61573;BME280;47465;43.094;12.434;2022-11-15T00:33:18;99204.81;;;7.81;100.00
61573;BME280;47465;43.094;12.434;2022-11-15T00:35:44;99212.78;;;7.81;100.00
61573;BME280;47465;43.094;12.434;2022-11-15T00:38:11;99225.09;;;7.84;100.00
61573;BME280;47465;43.094;12.434;2022-11-15T00:40:37;99211.03;;;7.77;100.00
61573;BME280;47465;43.094;12.434;2022-11-15T00:43:05;99225.97;;;7.88;100.00
61573;BME280;47465;43.094;12.434;2022-11-15T00:45:31;99211.03;;;7.77;100.00
61573;BME280;47465;43.094;12.434;2022-11-15T00:47:57;99245.31;;;7.96;100.00
61573;BME280;47465;43.094;12.434;2022-11-15T00:50:23;99212.91;;;7.66;100.00
61573;BME280;47465;43.094;12.434;2022-11-15T00:52:51;99210.25;;;7.68;100.00
61573;BME280;47465;43.094;12.434;2022-11-15T00:55:21;99199.66;;;7.65;100.00
61573;BME280;47465;43.094;12.434;2022-11-15T00:57:47;99204.09;;;7.64;100.00
61573;BME280;47465;43.094;12.434;2022-11-15T01:00:14;99200.53;;;7.65;100.00
61573;BME280;47465;43.094;12.434;2022-11-15T01:02:40;99232.16;;;7.85;100.00
61573;BME280;47465;43.094;12.434;2022-11-15T01:05:07;99192.59;;;7.65;100.00
61573;BME280;47465;43.094;12.434;2022-11-15T01:07:34;99190.91;;;7.59;100.00
61573;BME280;47465;43.094;12.434;2022-11-15T01:10:00;99185.66;;;7.55;100.00
61573;BME280;47465;43.094;12.434;2022-11-15T01:12:27;99208.47;;;7.67;100.00
61573;BME280;47465;43.094;12.434;2022-11-15T01:14:53;99189.22;;;7.49;100.00
61573;BME280;47465;43.094;12.434;2022-11-15T01:17:19;99174.25;;;7.45;100.00
61573;BME280;47465;43.094;12.434;2022-11-15T01:19:45;99172.47;;;7.47;100.00
61573;BME280;47465;43.094;12.434;2022-11-15T01:22:11;99197.94;;;7.60;100.00
61573;BME280;47465;43.094;12.434;2022-11-15T01:24:38;99175.06;;;7.53;100.00
61573;BME280;47465;43.094;12.434;2022-11-15T01:27:04;99212.88;;;7.69;100.00
61573;BME280;47465;43.094;12.434;2022-11-15T01:29:34;99185.63;;;7.56;100.00
61573;BME280;47465;43.094;12.434;2022-11-15T01:32:03;99181.19;;;7.61;100.00
61573;BME280;47465;43.094;12.434;2022-11-15T01:34:29;99185.56;;;7.63;100.00
61573;BME280;47465;43.094;12.434;2022-11-15T01:36:55;99176.75;;;7.64;100.00
61573;BME280;47465;43.094;12.434;2022-11-15T01:39:21;99179.41;;;7.60;100.00
61573;BME280;47465;43.094;12.434;2022-11-15T01:41:48;99174.97;;;7.63;100.00
61573;BME280;47465;43.094;12.434;2022-11-15T01:44:40;99208.38;;;7.77;100.00
61573;BME280;47465;43.094;12.434;2022-11-15T01:47:12;99182.06;;;7.60;100.00
61573;BME280;47465;43.094;12.434;2022-11-15T01:49:48;99171.47;;;7.62;100.00
61573;BME280;47465;43.094;12.434;2022-11-15T01:52:18;99172.38;;;7.59;100.00
61573;BME280;47465;43.094;12.434;2022-11-15T01:54:45;99177.63;;;7.64;100.00
61573;BME280;47465;43.094;12.434;2022-11-15T01:57:13;99176.72;;;7.67;100.00
61573;BME280;47465;43.094;12.434;2022-11-15T01:59:43;99181.06;;;7.74;100.00
61573;BME280;47465;43.094;12.434;2022-11-15T02:02:10;99174.03;;;7.70;100.00
61573;BME280;47465;43.094;12.434;2022-11-15T02:04:39;99167.91;;;7.68;100.00
61573;BME280;47465;43.094;12.434;2022-11-15T02:07:06;99159.97;;;7.66;100.00
61573;BME280;47465;43.094;12.434;2022-11-15T02:09:35;99172.25;;;7.72;100.00
61573;BME280;47465;43.094;12.434;2022-11-15T02:12:02;99172.25;;;7.72;100.00
61573;BME280;47465;43.094;12.434;2022-11-15T02:14:29;99174.91;;;7.72;100.00
61573;BME280;47465;43.094;12.434;2022-11-15T02:17:04;99162.53;;;7.75;100.00
61573;BME280;47465;43.094;12.434;2022-11-15T02:19:53;99163.38;;;7.77;100.00
61573;BME280;47465;43.094;12.434;2022-11-15T02:22:36;99158.13;;;7.73;100.00
61573;BME280;47465;43.094;12.434;2022-11-15T02:25:24;99156.47;;;7.61;100.00
61573;BME280;47465;43.094;12.434;2022-11-15T02:28:16;99159.19;;;7.55;100.00
61573;BME280;47465;43.094;12.434;2022-11-15T02:30:51;99168.00;;;7.57;100.00
61573;BME280;47465;43.094;12.434;2022-11-15T02:33:29;99180.22;;;7.69;100.00
61573;BME280;47465;43.094;12.434;2022-11-15T02:35:59;99197.78;;;7.79;100.00
61573;BME280;47465;43.094;12.434;2022-11-15T02:38:32;99162.66;;;7.60;100.00
61573;BME280;47465;43.094;12.434;2022-11-15T02:41:02;99153.84;;;7.59;100.00
61573;BME280;47465;43.094;12.434;2022-11-15T02:43:36;99175.78;;;7.72;100.00
61573;BME280;47465;43.094;12.434;2022-11-15T02:46:51;99176.66;;;7.74;100.00
61573;BME280;47465;43.094;12.434;2022-11-15T02:50:06;99161.69;;;7.69;100.00
61573;BME280;47465;43.094;12.434;2022-11-15T02:52:35;99152.03;;;7.68;100.00
61573;BME280;47465;43.094;12.434;2022-11-15T02:55:01;99147.50;;;7.76;100.00
61573;BME280;47465;43.094;12.434;2022-11-15T02:57:36;99133.44;;;7.71;100.00
61573;BME280;47465;43.094;12.434;2022-11-15T03:00:07;99153.66;;;7.81;100.00
61573;BME280;47465;43.094;12.434;2022-11-15T03:02:44;99165.94;;;7.87;100.00
61573;BME280;47465;43.094;12.434;2022-11-15T03:05:20;99172.97;;;7.91;100.00
61573;BME280;47465;43.094;12.434;2022-11-15T03:07:53;99179.16;;;7.90;100.00
61573;BME280;47465;43.094;12.434;2022-11-15T03:10:26;99141.44;;;7.68;100.00
61573;BME280;47465;43.094;12.434;2022-11-15T03:12:58;99136.97;;;7.70;100.00
61573;BME280;47465;43.094;12.434;2022-11-15T03:15:29;99145.78;;;7.73;100.00
61573;BME280;47465;43.094;12.434;2022-11-15T03:18:00;99131.72;;;7.68;100.00
61573;BME280;47465;43.094;12.434;2022-11-15T03:20:29;99134.31;;;7.74;100.00
61573;BME280;47465;43.094;12.434;2022-11-15T03:23:00;99144.94;;;7.68;100.00
61573;BME280;47465;43.094;12.434;2022-11-15T03:25:28;99137.00;;;7.68;100.00
61573;BME280;47465;43.094;12.434;2022-11-15T03:27:59;99133.50;;;7.65;100.00
61573;BME280;47465;43.094;12.434;2022-11-15T03:30:28;99130.09;;;7.50;100.00
61573;BME280;47465;43.094;12.434;2022-11-15T03:32:58;99118.69;;;7.45;100.00
61573;BME280;47465;43.094;12.434;2022-11-15T03:35:30;99130.06;;;7.55;100.00
61573;BME280;47465;43.094;12.434;2022-11-15T03:38:03;99115.97;;;7.51;100.00
61573;BME280;47465;43.094;12.434;2022-11-15T03:40:38;99117.72;;;7.57;100.00
61573;BME280;47465;43.094;12.434;2022-11-15T03:43:09;99126.44;;;7.65;100.00
61573;BME280;47465;43.094;12.434;2022-11-15T03:45:43;99107.84;;;7.70;100.00
61573;BME280;47465;43.094;12.434;2022-11-15T03:48:12;99137.00;;;7.68;100.00
61573;BME280;47465;43.094;12.434;2022-11-15T03:50:44;99125.59;;;7.60;100.00
61573;BME280;47465;43.094;12.434;2022-11-15T03:53:12;99115.03;;;7.60;100.00
61573;BME280;47465;43.094;12.434;2022-11-15T03:55:38;99118.53;;;7.62;100.00
61573;BME280;47465;43.094;12.434;2022-11-15T03:58:05;99120.25;;;7.65;100.00
61573;BME280;47465;43.094;12.434;2022-11-15T04:00:31;99116.72;;;7.67;100.00
61573;BME280;47465;43.094;12.434;2022-11-15T04:02:57;99128.16;;;7.69;100.00
61573;BME280;47465;43.094;12.434;2022-11-15T04:05:24;99122.09;;;7.59;100.00
61573;BME280;47465;43.094;12.434;2022-11-15T04:07:51;99130.91;;;7.58;100.00
61573;BME280;47465;43.094;12.434;2022-11-15T04:10:18;99138.84;;;7.60;100.00
61573;BME280;47465;43.094;12.434;2022-11-15T04:12:45;99126.53;;;7.56;100.00
61573;BME280;47465;43.094;12.434;2022-11-15T04:15:15;99132.72;;;7.53;100.00
61573;BME280;47465;43.094;12.434;2022-11-15T04:17:43;99124.84;;;7.49;100.00
61573;BME280;47465;43.094;12.434;2022-11-15T04:20:12;99145.03;;;7.57;100.00
61573;BME280;47465;43.094;12.434;2022-11-15T04:33:36;99143.22;;;7.64;100.00
61573;BME280;47465;43.094;12.434;2022-11-15T04:36:03;99144.94;;;7.68;100.00
61573;BME280;47465;43.094;12.434;2022-11-15T04:39:07;99121.22;;;7.57;100.00
61573;BME280;47465;43.094;12.434;2022-11-15T04:41:34;99108.00;;;7.57;100.00
61573;BME280;47465;43.094;12.434;2022-11-15T04:44:01;99105.34;;;7.56;100.00
61573;BME280;47465;43.094;12.434;2022-11-15T04:46:27;99108.00;;;7.59;100.00
61573;BME280;47465;43.094;12.434;2022-11-15T04:48:54;99105.34;;;7.59;100.00
61573;BME280;47465;43.094;12.434;2022-11-15T04:51:20;99113.28;;;7.54;100.00
61573;BME280;47465;43.094;12.434;2022-11-15T04:53:46;99119.41;;;7.64;100.00
61573;BME280;47465;43.094;12.434;2022-11-15T04:56:14;99147.50;;;7.76;100.00
61573;BME280;47465;43.094;12.434;2022-11-15T04:58:40;99101.91;;;7.48;100.00
61573;BME280;47465;43.094;12.434;2022-11-15T05:01:07;99098.34;;;7.50;100.00
61573;BME280;47465;43.094;12.434;2022-11-15T05:03:33;99119.41;;;7.63;100.00
61573;BME280;47465;43.094;12.434;2022-11-15T05:17:00;99094.00;;;7.45;100.00
61573;BME280;47465;43.094;12.434;2022-11-15T05:19:26;99092.28;;;7.40;100.00
61573;BME280;47465;43.094;12.434;2022-11-15T05:29:33;99092.22;;;7.48;100.00
61573;BME280;47465;43.094;12.434;2022-11-15T05:32:01;99089.63;;;7.42;100.00
61573;BME280;47465;43.094;12.434;2022-11-15T05:34:32;99094.88;;;7.47;100.00
61573;BME280;47465;43.094;12.434;2022-11-15T05:36:59;99132.63;;;7.66;100.00
61573;BME280;47465;43.094;12.434;2022-11-15T05:39:25;99092.22;;;7.45;100.00
61573;BME280;47465;43.094;12.434;2022-11-15T05:41:53;99080.78;;;7.41;100.00
61573;BME280;47465;43.094;12.434;2022-11-15T05:44:25;99067.59;;;7.40;100.00
61573;BME280;47465;43.094;12.434;2022-11-15T05:46:52;99064.91;;;7.41;100.00
61573;BME280;47465;43.094;12.434;2022-11-15T05:49:24;99062.25;;;7.43;100.00
61573;BME280;47465;43.094;12.434;2022-11-15T05:51:51;99058.69;;;7.47;100.00
61573;BME280;47465;43.094;12.434;2022-11-15T05:54:20;99061.34;;;7.46;100.00
61573;BME280;47465;43.094;12.434;2022-11-15T05:56:48;99059.75;;;7.31;100.00
61573;BME280;47465;43.094;12.434;2022-11-15T05:59:15;99055.38;;;7.25;100.00
61573;BME280;47465;43.094;12.434;2022-11-15T06:01:45;99068.66;;;7.20;100.00
61573;BME280;47465;43.094;12.434;2022-11-15T06:04:11;99076.59;;;7.17;100.00
61573;BME280;47465;43.094;12.434;2022-11-15T06:06:38;99080.16;;;7.13;100.00
61573;BME280;47465;43.094;12.434;2022-11-15T06:09:04;99120.56;;;7.32;100.00
61573;BME280;47465;43.094;12.434;2022-11-15T06:11:30;99115.41;;;7.15;100.00
61573;BME280;47465;43.094;12.434;2022-11-15T06:13:57;99155.78;;;7.39;100.00
61573;BME280;47465;43.094;12.434;2022-11-15T06:16:25;99117.13;;;7.23;100.00
61573;BME280;47465;43.094;12.434;2022-11-15T06:18:55;99138.16;;;7.36;100.00
61573;BME280;47465;43.094;12.434;2022-11-15T06:21:21;99115.31;;;7.31;100.00
61573;BME280;47465;43.094;12.434;2022-11-15T06:23:49;99124.06;;;7.36;100.00
61573;BME280;47465;43.094;12.434;2022-11-15T06:26:15;99138.97;;;7.46;100.00
61573;BME280;47465;43.094;12.434;2022-11-15T06:28:41;99155.69;;;7.51;100.00
61573;BME280;47465;43.094;12.434;2022-11-15T06:31:09;99116.13;;;7.33;100.00
61573;BME280;47465;43.094;12.434;2022-11-15T06:33:36;99129.34;;;7.37;100.00
61573;BME280;47465;43.094;12.434;2022-11-15T06:36:03;99129.31;;;7.40;100.00
61573;BME280;47465;43.094;12.434;2022-11-15T06:38:29;99127.53;;;7.41;100.00
61573;BME280;47465;43.094;12.434;2022-11-15T06:41:03;99123.94;;;7.51;100.00
61573;BME280;47465;43.094;12.434;2022-11-15T06:43:29;99120.38;;;7.52;100.00
61573;BME280;47465;43.094;12.434;2022-11-15T06:45:56;99118.63;;;7.53;100.00
61573;BME280;47465;43.094;12.434;2022-11-15T06:48:23;99127.41;;;7.56;100.00
61573;BME280;47465;43.094;12.434;2022-11-15T06:50:51;99124.78;;;7.53;100.00
61573;BME280;47465;43.094;12.434;2022-11-15T06:53:17;99152.88;;;7.68;100.00
61573;BME280;47465;43.094;12.434;2022-11-15T06:55:44;99127.34;;;7.66;100.00
61573;BME280;47465;43.094;12.434;2022-11-15T06:58:11;99119.34;;;7.69;100.00
61573;BME280;47465;43.094;12.434;2022-11-15T07:00:37;99127.28;;;7.70;100.00
61573;BME280;47465;43.094;12.434;2022-11-15T07:03:03;99118.44;;;7.74;100.00
61573;BME280;47465;43.094;12.434;2022-11-15T07:05:29;99130.69;;;7.81;100.00
61573;BME280;47465;43.094;12.434;2022-11-15T07:07:56;99120.41;;;7.51;100.00
61573;BME280;47465;43.094;12.434;2022-11-15T07:10:25;99131.91;;;7.45;100.00
61573;BME280;47465;43.094;12.434;2022-11-15T07:12:55;99157.41;;;7.57;100.00
61573;BME280;47465;43.094;12.434;2022-11-15T07:15:23;99155.59;;;7.62;100.00
61573;BME280;47465;43.094;12.434;2022-11-15T07:17:50;99151.16;;;7.64;100.00
61573;BME280;47465;43.094;12.434;2022-11-15T07:20:16;99123.09;;;7.46;100.00
61573;BME280;47465;43.094;12.434;2022-11-15T07:22:43;99136.34;;;7.46;100.00
61573;BME280;47465;43.094;12.434;2022-11-15T07:25:11;99141.63;;;7.46;100.00
61573;BME280;47465;43.094;12.434;2022-11-15T07:27:37;99137.25;;;7.40;100.00
61573;BME280;47465;43.094;12.434;2022-11-15T07:30:04;99142.50;;;7.47;100.00
61573;BME280;47465;43.094;12.434;2022-11-15T07:32:32;99126.75;;;7.28;100.00
61573;BME280;47465;43.094;12.434;2022-11-15T07:34:59;99143.53;;;7.26;100.00
61573;BME280;47465;43.094;12.434;2022-11-15T07:37:25;99125.97;;;7.18;100.00
61573;BME280;47465;43.094;12.434;2022-11-15T07:39:54;99136.41;;;7.34;100.00
61573;BME280;47465;43.094;12.434;2022-11-15T07:42:20;99120.56;;;7.32;100.00
61573;BME280;47465;43.094;12.434;2022-11-15T07:45:22;99136.34;;;7.46;100.00
61573;BME280;47465;43.094;12.434;2022-11-15T07:47:51;99109.00;;;7.44;100.00
61573;BME280;47465;43.094;12.434;2022-11-15T07:50:17;99117.69;;;7.58;100.00
61573;BME280;47465;43.094;12.434;2022-11-15T07:52:47;99139.69;;;7.64;100.00
61573;BME280;47465;43.094;12.434;2022-11-15T07:55:13;99139.66;;;7.68;100.00
61573;BME280;47465;43.094;12.434;2022-11-15T07:57:39;99128.25;;;7.58;100.00
61573;BME280;47465;43.094;12.434;2022-11-15T08:00:09;99130.91;;;7.61;100.00
61573;BME280;47465;43.094;12.434;2022-11-15T08:02:36;99153.69;;;7.76;100.00
61573;BME280;47465;43.094;12.434;2022-11-15T08:05:03;99135.28;;;7.61;100.00
61573;BME280;47465;43.094;12.434;2022-11-15T08:07:30;99123.78;;;7.68;100.00
61573;BME280;47465;43.094;12.434;2022-11-15T08:09:56;99128.97;;;7.77;100.00
61573;BME280;47465;43.094;12.434;2022-11-15T08:12:27;99120.41;;;7.48;100.00
61573;BME280;47465;43.094;12.434;2022-11-15T08:14:53;99131.94;;;7.40;100.00
61573;BME280;47465;43.094;12.434;2022-11-15T08:17:19;99129.34;;;7.33;100.00
61573;BME280;47465;43.094;12.434;2022-11-15T08:19:57;99123.13;;;7.41;100.00
61573;BME280;47465;43.094;12.434;2022-11-15T08:22:23;99129.13;;;7.60;100.00
61573;BME280;47465;43.094;12.434;2022-11-15T08:24:50;99118.53;;;7.64;100.00
61573;BME280;47465;43.094;12.434;2022-11-15T08:27:35;99145.56;;;7.95;100.00
61573;BME280;47465;43.094;12.434;2022-11-15T08:30:09;99140.16;;;8.04;100.00
61573;BME280;47465;43.094;12.434;2022-11-15T08:32:38;99129.50;;;8.10;100.00
61573;BME280;47465;43.094;12.434;2022-11-15T08:35:07;99109.47;;;7.86;100.00
61573;BME280;47465;43.094;12.434;2022-11-15T08:37:43;99115.63;;;7.87;100.00
61573;BME280;47465;43.094;12.434;2022-11-15T08:40:17;99112.16;;;7.80;100.00
61573;BME280;47465;43.094;12.434;2022-11-15T08:42:45;99124.38;;;7.95;100.00
61573;BME280;47465;43.094;12.434;2022-11-15T08:45:12;99106.00;;;7.78;100.00
61573;BME280;47465;43.094;12.434;2022-11-15T08:47:41;99111.31;;;7.78;100.00
61573;BME280;47465;43.094;12.434;2022-11-15T08:50:10;99109.41;;;7.91;100.00
61573;BME280;47465;43.094;12.434;2022-11-15T08:52:38;99084.88;;;7.75;100.00
61573;BME280;47465;43.094;12.434;2022-11-15T08:55:08;99088.50;;;7.63;100.00
61573;BME280;47465;43.094;12.434;2022-11-15T08:57:43;99100.59;;;7.90;100.00
61573;BME280;47465;43.094;12.434;2022-11-15T09:00:13;99097.13;;;7.84;100.00
61573;BME280;47465;43.094;12.434;2022-11-15T09:02:42;99062.84;;;7.73;100.00
61573;BME280;47465;43.094;12.434;2022-11-15T09:05:13;99095.31;;;7.89;100.00
61573;BME280;47465;43.094;12.434;2022-11-15T09:07:42;99076.06;;;7.74;100.00
61573;BME280;47465;43.094;12.434;2022-11-15T09:10:08;99071.81;;;7.59;100.00
61573;BME280;47465;43.094;12.434;2022-11-15T09:12:37;99071.66;;;7.72;100.00
61573;BME280;47465;43.094;12.434;2022-11-15T09:15:05;99065.34;;;7.85;100.00
61573;BME280;47465;43.094;12.434;2022-11-15T09:17:31;99053.94;;;7.78;100.00
61573;BME280;47465;43.094;12.434;2022-11-15T09:19:57;99055.66;;;7.84;100.00
61573;BME280;47465;43.094;12.434;2022-11-15T09:22:28;99053.97;;;7.77;100.00
61573;BME280;47465;43.094;12.434;2022-11-15T09:24:54;99073.03;;;8.07;100.00
61573;BME280;47465;43.094;12.434;2022-11-15T09:27:20;99043.94;;;8.02;100.00
61573;BME280;47465;43.094;12.434;2022-11-15T09:29:46;99059.63;;;8.22;100.00
61573;BME280;47465;43.094;12.434;2022-11-15T09:32:12;99043.88;;;8.10;100.00
61573;BME280;47465;43.094;12.434;2022-11-15T09:34:39;99049.09;;;8.16;100.00
61573;BME280;47465;43.094;12.434;2022-11-15T09:37:08;99064.81;;;8.28;100.00
61573;BME280;47465;43.094;12.434;2022-11-15T09:39:35;99054.19;;;8.33;100.00
61573;BME280;47465;43.094;12.434;2022-11-15T09:42:28;99060.25;;;8.41;100.00
61573;BME280;47465;43.094;12.434;2022-11-15T09:45:13;99062.75;;;8.52;100.00
61573;BME280;47465;43.094;12.434;2022-11-15T09:48:02;99043.50;;;8.37;100.00
61573;BME280;47465;43.094;12.434;2022-11-15T09:50:44;99033.78;;;8.38;100.00
61573;BME280;47465;43.094;12.434;2022-11-15T09:53:34;99029.56;;;8.25;100.00
61573;BME280;47465;43.094;12.434;2022-11-15T09:56:17;99048.78;;;8.40;100.00
61573;BME280;47465;43.094;12.434;2022-11-15T09:58:54;99024.25;;;8.23;100.00
61573;BME280;47465;43.094;12.434;2022-11-15T10:01:36;99021.53;;;8.29;100.00
61573;BME280;47465;43.094;12.434;2022-11-15T10:04:06;99016.16;;;8.35;100.00
61573;BME280;47465;43.094;12.434;2022-11-15T10:07:00;99018.47;;;8.60;100.00
61573;BME280;47465;43.094;12.434;2022-11-15T10:09:33;99011.28;;;8.67;100.00
61573;BME280;47465;43.094;12.434;2022-11-15T10:12:05;99023.25;;;8.94;100.00
61573;BME280;47465;43.094;12.434;2022-11-15T10:14:34;99022.44;;;8.89;100.00
61573;BME280;47465;43.094;12.434;2022-11-15T10:17:38;99037.97;;;9.12;100.00
61573;BME280;47465;43.094;12.434;2022-11-15T10:20:14;99028.41;;;9.03;100.00
61573;BME280;47465;43.094;12.434;2022-11-15T10:22:46;99000.53;;;8.77;100.00
61573;BME280;47465;43.094;12.434;2022-11-15T10:25:20;98983.06;;;8.64;100.00
61573;BME280;47465;43.094;12.434;2022-11-15T10:27:53;99011.66;;;8.99;100.00
61573;BME280;47465;43.094;12.434;2022-11-15T10:30:20;98982.63;;;8.92;100.00
61573;BME280;47465;43.094;12.434;2022-11-15T10:32:49;98976.38;;;8.96;100.00
61573;BME280;47465;43.094;12.434;2022-11-15T10:35:22;98969.97;;;9.06;100.00
61573;BME280;47465;43.094;12.434;2022-11-15T10:37:48;98961.81;;;9.17;99.87
61573;BME280;47465;43.094;12.434;2022-11-15T10:40:18;98964.56;;;9.12;100.00
61573;BME280;47465;43.094;12.434;2022-11-15T10:42:49;98973.72;;;8.96;100.00
61573;BME280;47465;43.094;12.434;2022-11-15T10:45:32;98978.88;;;9.03;100.00
61573;BME280;47465;43.094;12.434;2022-11-15T10:48:18;98982.19;;;9.16;100.00
61573;BME280;47465;43.094;12.434;2022-11-15T10:50:49;98956.50;;;9.18;100.00
61573;BME280;47465;43.094;12.434;2022-11-15T10:53:22;98941.25;;;9.30;100.00
61573;BME280;47465;43.094;12.434;2022-11-15T10:55:51;98931.75;;;9.18;99.36
61573;BME280;47465;43.094;12.434;2022-11-15T10:58:27;98937.75;;;9.28;99.70
61573;BME280;47465;43.094;12.434;2022-11-15T11:00:55;98920.75;;;9.38;99.19
61573;BME280;47465;43.094;12.434;2022-11-15T11:03:35;98908.53;;;9.29;100.00
61573;BME280;47465;43.094;12.434;2022-11-15T11:06:06;98910.97;;;9.40;97.79
61573;BME280;47465;43.094;12.434;2022-11-15T11:08:32;98940.59;;;9.63;95.61
61573;BME280;47465;43.094;12.434;2022-11-15T11:11:00;98901.03;;;9.50;94.68
61573;BME280;47465;43.094;12.434;2022-11-15T11:13:30;98893.16;;;9.45;95.21
61573;BME280;47465;43.094;12.434;2022-11-15T11:15:57;98930.22;;;9.51;95.48
61573;BME280;47465;43.094;12.434;2022-11-15T11:18:26;98921.69;;;9.35;98.51
61573;BME280;47465;43.094;12.434;2022-11-15T11:20:58;98884.03;;;9.15;96.93
61573;BME280;47465;43.094;12.434;2022-11-15T11:23:38;98905.03;;;9.27;96.80
61573;BME280;47465;43.094;12.434;2022-11-15T11:26:35;98878.63;;;9.21;96.68
61573;BME280;47465;43.094;12.434;2022-11-15T11:29:20;98896.66;;;9.47;97.29
61573;BME280;47465;43.094;12.434;2022-11-15T11:31:58;98895.56;;;9.59;97.55
61573;BME280;47465;43.094;12.434;2022-11-15T11:34:55;98866.59;;;9.46;97.21
61573;BME280;47465;43.094;12.434;2022-11-15T11:37:29;98861.19;;;9.51;97.93
61573;BME280;47465;43.094;12.434;2022-11-15T11:40:28;98861.38;;;9.42;98.50
61573;BME280;47465;43.094;12.434;2022-11-15T11:43:00;98862.34;;;9.39;98.80
61573;BME280;47465;43.094;12.434;2022-11-15T11:46:05;98855.13;;;9.44;99.53
61573;BME280;47465;43.094;12.434;2022-11-15T11:48:41;98847.91;;;9.51;98.02
61573;BME280;47465;43.094;12.434;2022-11-15T11:51:20;98861.06;;;9.57;98.70
61573;BME280;47465;43.094;12.434;2022-11-15T11:53:53;98862.88;;;9.55;100.00
61573;BME280;47465;43.094;12.434;2022-11-15T11:56:25;98876.28;;;9.49;100.00
61573;BME280;47465;43.094;12.434;2022-11-15T11:58:54;98836.88;;;9.31;100.00
61573;BME280;47465;43.094;12.434;2022-11-15T12:01:25;98835.84;;;9.36;100.00
61573;BME280;47465;43.094;12.434;2022-11-15T12:03:55;98843.84;;;9.35;100.00
61573;BME280;47465;43.094;12.434;2022-11-15T12:06:36;98856.84;;;9.47;100.00
61573;BME280;47465;43.094;12.434;2022-11-15T12:09:14;98847.47;;;9.31;100.00
61573;BME280;47465;43.094;12.434;2022-11-15T12:11:49;98827.22;;;9.27;100.00
61573;BME280;47465;43.094;12.434;2022-11-15T12:14:25;98822.56;;;9.36;100.00
61573;BME280;47465;43.094;12.434;2022-11-15T12:16:53;98832.47;;;9.28;100.00
61573;BME280;47465;43.094;12.434;2022-11-15T12:19:19;98807.31;;;9.04;100.00
61573;BME280;47465;43.094;12.434;2022-11-15T12:21:49;98816.97;;;9.08;100.00
61573;BME280;47465;43.094;12.434;2022-11-15T12:24:21;98805.50;;;9.06;100.00
61573;BME280;47465;43.094;12.434;2022-11-15T12:26:51;98800.16;;;9.09;100.00
61573;BME280;47465;43.094;12.434;2022-11-15T12:29:27;98807.16;;;9.13;100.00
61573;BME280;47465;43.094;12.434;2022-11-15T12:31:56;98809.81;;;9.12;100.00
61573;BME280;47465;43.094;12.434;2022-11-15T12:34:42;98822.78;;;9.25;100.00
61573;BME280;47465;43.094;12.434;2022-11-15T12:40:31;98792.44;;;8.97;100.00
61573;BME280;47465;43.094;12.434;2022-11-15T12:46:02;98791.19;;;9.15;100.00
61573;BME280;47465;43.094;12.434;2022-11-15T12:48:58;98810.97;;;9.42;100.00
61573;BME280;47465;43.094;12.434;2022-11-15T12:57:44;98749.03;;;9.01;100.00
61573;BME280;47465;43.094;12.434;2022-11-15T13:00:43;98780.22;;;8.90;100.00
61573;BME280;47465;43.094;12.434;2022-11-15T13:03:24;98793.38;;;8.94;100.00
61573;BME280;47465;43.094;12.434;2022-11-15T13:06:04;98752.13;;;8.79;100.00
61573;BME280;47465;43.094;12.434;2022-11-15T13:08:49;98758.25;;;8.83;100.00
61573;BME280;47465;43.094;12.434;2022-11-15T13:11:50;98770.50;;;8.89;100.00
61573;BME280;47465;43.094;12.434;2022-11-15T13:14:37;98789.72;;;9.00;100.00
61573;BME280;47465;43.094;12.434;2022-11-15T13:17:10;98782.75;;;8.96;100.00
61573;BME280;47465;43.094;12.434;2022-11-15T13:19:41;98752.03;;;8.84;100.00
61573;BME280;47465;43.094;12.434;2022-11-15T13:22:10;98754.59;;;8.89;100.00
61573;BME280;47465;43.094;12.434;2022-11-15T13:26:13;98750.97;;;8.93;100.00
61573;BME280;47465;43.094;12.434;2022-11-15T13:28:46;98746.72;;;8.86;100.00
61573;BME280;47465;43.094;12.434;2022-11-15T13:31:36;98737.91;;;8.83;100.00
61573;BME280;47465;43.094;12.434;2022-11-15T13:34:16;98741.50;;;8.81;100.00
61573;BME280;47465;43.094;12.434;2022-11-15T13:36:42;98746.00;;;8.77;100.00
61573;BME280;47465;43.094;12.434;2022-11-15T13:39:23;98737.19;;;8.75;100.00
61573;BME280;47465;43.094;12.434;2022-11-15T13:41:53;98738.94;;;8.76;100.00
61573;BME280;47465;43.094;12.434;2022-11-15T13:44:20;98731.13;;;8.69;100.00
61573;BME280;47465;43.094;12.434;2022-11-15T13:46:47;98729.34;;;8.69;100.00
61573;BME280;47465;43.094;12.434;2022-11-15T13:49:13;98718.44;;;8.84;100.00
61573;BME280;47465;43.094;12.434;2022-11-15T13:51:44;98731.03;;;8.73;100.00
61573;BME280;47465;43.094;12.434;2022-11-15T13:54:20;98715.94;;;8.78;100.00
61573;BME280;47465;43.094;12.434;2022-11-15T13:56:55;98718.72;;;8.71;100.00